createdAt,value
2023-03-17T00:01:50.943Z,100413.06
2023-03-17T00:04:21.844Z,100419.63
2023-03-17T00:06:48.624Z,100416.03
2023-03-17T00:09:17.500Z,100403.16
2023-03-17T00:11:45.613Z,100408.03
2023-03-17T00:14:12.142Z,100415.81
2023-03-17T00:16:42.295Z,100408.84
2023-03-17T00:19:17.114Z,100423.84
2023-03-17T00:21:43.915Z,100421.31
2023-03-17T00:24:14.738Z,100414.53
2023-03-17T00:26:42.099Z,100402.09
2023-03-17T00:29:09.056Z,100407.38
2023-03-17T00:31:36.238Z,100405.91
2023-03-17T00:34:02.718Z,100401.47
2023-03-17T00:36:32.307Z,100408.22
2023-03-17T00:38:59.466Z,100402.31
2023-03-17T00:41:27.101Z,100399.13
2023-03-17T00:43:54.024Z,100386.69
2023-03-17T00:46:35.363Z,100387.09
2023-03-17T00:51:43.726Z,100379.09
2023-03-17T00:54:11.380Z,100398.69
2023-03-17T00:56:39.412Z,100400.78
2023-03-17T00:59:19.288Z,100414.50
2023-03-17T01:01:46.630Z,100429.25
2023-03-17T01:04:13.563Z,100444.84
2023-03-17T01:06:40.092Z,100444.84
2023-03-17T01:09:08.168Z,100442.34
2023-03-17T01:11:34.970Z,100457.75
2023-03-17T01:14:01.350Z,100443.19
2023-03-17T01:16:28.974Z,100435.16
2023-03-17T01:18:55.508Z,100424.19
2023-03-17T01:21:22.344Z,100415.34
2023-03-17T01:23:49.191Z,100410.91
2023-03-17T01:26:15.586Z,100405.84
2023-03-17T01:28:42.286Z,100407.75
2023-03-17T01:31:09.513Z,100392.34
2023-03-17T01:33:36.419Z,100401.41
2023-03-17T01:36:02.943Z,100392.56
2023-03-17T01:38:29.626Z,100380.34
2023-03-17T01:40:56.706Z,100380.94
2023-03-17T01:43:28.094Z,100376.09
2023-03-17T01:46:20.852Z,100375.25
2023-03-17T01:49:22.520Z,100365.53
2023-03-17T01:52:09.980Z,100352.47
2023-03-17T01:54:42.047Z,100343.16
2023-03-17T01:57:29.569Z,100343.34
2023-03-17T02:00:01.705Z,100338.69
2023-03-17T02:02:31.323Z,100344.34
2023-03-17T02:04:58.905Z,100339.06
2023-03-17T02:07:26.706Z,100339.69
2023-03-17T02:09:55.996Z,100340.50
2023-03-17T02:12:24.573Z,100339.44
2023-03-17T02:14:51.977Z,100340.25
2023-03-17T02:17:21.112Z,100330.78
2023-03-17T02:19:48.179Z,100338.56
2023-03-17T02:22:16.670Z,100338.09
2023-03-17T02:24:51.710Z,100340.19
2023-03-17T02:27:41.868Z,100338.91
2023-03-17T02:30:10.905Z,100338.66
2023-03-17T02:32:38.122Z,100337.00
2023-03-17T02:35:07.276Z,100333.41
2023-03-17T02:37:34.414Z,100328.97
2023-03-17T02:40:01.728Z,100324.75
2023-03-17T02:42:29.040Z,100322.63
2023-03-17T02:44:55.460Z,100318.81
2023-03-17T02:47:22.089Z,100317.72
2023-03-17T02:49:49.268Z,100304.88
2023-03-17T02:52:15.910Z,100304.19
2023-03-17T02:54:42.763Z,100305.63
2023-03-17T02:57:09.296Z,100303.47
2023-03-17T02:59:36.228Z,100304.75
2023-03-17T03:02:02.834Z,100323.63
2023-03-17T03:04:29.670Z,100318.97
2023-03-17T03:06:56.967Z,100313.06
2023-03-17T03:09:24.154Z,100313.44
2023-03-17T03:11:50.784Z,100312.16
2023-03-17T03:14:17.305Z,100302.47
2023-03-17T03:16:43.891Z,100315.47
2023-03-17T03:19:10.462Z,100312.34
2023-03-17T03:21:37.125Z,100318.88
2023-03-17T03:24:04.383Z,100316.78
2023-03-17T03:26:31.048Z,100314.63
2023-03-17T03:28:58.380Z,100314.63
2023-03-17T03:31:24.995Z,100324.72
2023-03-17T03:33:51.552Z,100324.94
2023-03-17T03:36:18.475Z,100317.97
2023-03-17T03:38:44.970Z,100323.81
2023-03-17T03:41:11.479Z,100329.28
2023-03-17T03:43:37.897Z,100334.97
2023-03-17T03:46:05.018Z,100333.91
2023-03-17T03:48:31.499Z,100339.56
2023-03-17T03:50:59.576Z,100342.94
2023-03-17T03:53:26.509Z,100358.13
2023-03-17T03:55:53.724Z,100360.63
2023-03-17T03:58:20.326Z,100367.63
2023-03-17T04:00:47.216Z,100348.28
2023-03-17T04:03:14.766Z,100339.03
2023-03-17T04:05:41.245Z,100345.34
2023-03-17T04:08:08.076Z,100348.72
2023-03-17T04:10:34.622Z,100340.75
2023-03-17T04:13:01.264Z,100351.66
2023-03-17T04:15:27.774Z,100346.38
2023-03-17T04:17:55.355Z,100348.66
2023-03-17T04:20:22.205Z,100354.53
2023-03-17T04:22:48.601Z,100358.69
2023-03-17T04:25:15.745Z,100353.19
2023-03-17T04:27:42.696Z,100349.31
2023-03-17T04:30:13.691Z,100352.81
2023-03-17T04:32:40.422Z,100355.50
2023-03-17T04:35:10.905Z,100357.13
2023-03-17T04:37:38.798Z,100360.41
2023-03-17T04:40:09.858Z,100361.66
2023-03-17T04:42:37.532Z,100363.75
2023-03-17T04:45:06.308Z,100359.56
2023-03-17T04:47:33.115Z,100362.19
2023-03-17T04:49:59.575Z,100358.28
2023-03-17T04:52:26.151Z,100357.13
2023-03-17T04:54:53.172Z,100352.19
2023-03-17T04:57:19.649Z,100351.84
2023-03-17T04:59:46.162Z,100344.38
2023-03-17T05:02:12.900Z,100339.56
2023-03-17T05:04:39.465Z,100352.66
2023-03-17T05:07:06.440Z,100350.19
2023-03-17T05:09:32.886Z,100352.50
2023-03-17T05:11:59.354Z,100352.31
2023-03-17T05:14:25.785Z,100352.69
2023-03-17T05:16:52.417Z,100349.72
2023-03-17T05:19:19.208Z,100345.47
2023-03-17T05:21:46.667Z,100350.13
2023-03-17T05:24:13.255Z,100350.94
2023-03-17T05:26:40.599Z,100335.84
2023-03-17T05:29:07.182Z,100346.41
2023-03-17T05:31:33.864Z,100342.59
2023-03-17T05:34:00.469Z,100338.22
2023-03-17T05:36:26.968Z,100343.47
2023-03-17T05:38:53.437Z,100347.66
2023-03-17T05:41:19.957Z,100351.47
2023-03-17T05:43:46.858Z,100351.47
2023-03-17T05:46:13.680Z,100348.28
2023-03-17T05:48:40.145Z,100349.50
2023-03-17T05:51:06.805Z,100348.47
2023-03-17T05:53:33.675Z,100340.94
2023-03-17T05:56:00.139Z,100335.25
2023-03-17T05:58:26.568Z,100332.97
2023-03-17T06:00:53.057Z,100331.53
2023-03-17T06:03:19.532Z,100334.28
2023-03-17T06:05:46.019Z,100341.91
2023-03-17T06:08:13.053Z,100341.50
2023-03-17T06:10:39.676Z,100342.78
2023-03-17T06:13:06.149Z,100330.41
2023-03-17T06:15:33.874Z,100344.50
2023-03-17T06:18:00.670Z,100343.91
2023-03-17T06:20:27.198Z,100341.41
2023-03-17T06:23:03.933Z,100346.69
2023-03-17T06:25:31.657Z,100347.13
2023-03-17T06:27:58.300Z,100347.56
2023-03-17T06:30:24.784Z,100344.63
2023-03-17T06:32:51.359Z,100345.06
2023-03-17T06:35:18.107Z,100348.41
2023-03-17T06:37:44.578Z,100344.03
2023-03-17T06:40:12.488Z,100342.38
2023-03-17T06:42:38.891Z,100329.13
2023-03-17T06:45:06.368Z,100333.78
2023-03-17T06:47:34.109Z,100335.91
2023-03-17T06:50:00.747Z,100332.53
2023-03-17T06:52:27.656Z,100333.81
2023-03-17T06:54:54.027Z,100338.88
2023-03-17T06:57:20.747Z,100344.59
2023-03-17T06:59:47.187Z,100346.09
2023-03-17T07:02:13.661Z,100354.13
2023-03-17T07:04:40.162Z,100353.31
2023-03-17T07:07:06.748Z,100346.13
2023-03-17T07:09:34.439Z,100349.34
2023-03-17T07:12:05.039Z,100344.06
2023-03-17T07:14:36.707Z,100338.78
2023-03-17T07:17:04.172Z,100339.44
2023-03-17T07:19:31.186Z,100333.75
2023-03-17T07:21:57.649Z,100339.41
2023-03-17T07:24:24.617Z,100339.47
2023-03-17T07:26:51.658Z,100327.19
2023-03-17T07:29:18.294Z,100329.28
2023-03-17T07:31:45.451Z,100332.22
2023-03-17T07:34:12.708Z,100345.34
2023-03-17T07:36:40.064Z,100325.28
2023-03-17T07:39:06.792Z,100324.84
2023-03-17T07:41:33.605Z,100328.63
2023-03-17T07:44:00.606Z,100333.03
2023-03-17T07:46:27.101Z,100327.75
2023-03-17T07:48:53.543Z,100328.16
2023-03-17T07:51:22.741Z,100311.44
2023-03-17T07:53:50.117Z,100314.16
2023-03-17T07:56:17.704Z,100308.44
2023-03-17T07:58:44.842Z,100308.78
2023-03-17T08:01:11.292Z,100315.94
2023-03-17T08:03:41.310Z,100320.13
2023-03-17T08:06:08.624Z,100313.94
2023-03-17T08:08:35.210Z,100314.34
2023-03-17T08:11:03.684Z,100316.44
2023-03-17T08:13:31.472Z,100312.84
2023-03-17T08:15:58.449Z,100313.25
2023-03-17T08:18:24.843Z,100308.56
2023-03-17T08:20:51.473Z,100319.13
2023-03-17T08:23:19.009Z,100328.81
2023-03-17T08:25:46.609Z,100330.69
2023-03-17T08:28:14.166Z,100320.47
2023-03-17T08:30:44.733Z,100311.56
2023-03-17T08:33:11.242Z,100296.50
2023-03-17T08:35:41.457Z,100305.94
2023-03-17T08:38:08.841Z,100289.19
2023-03-17T08:40:36.604Z,100282.81
2023-03-17T08:43:03.200Z,100289.56
2023-03-17T08:45:29.948Z,100287.75
2023-03-17T08:47:56.625Z,100290.22
2023-03-17T08:50:23.897Z,100287.63
2023-03-17T08:52:51.769Z,100291.63
2023-03-17T08:55:19.412Z,100289.84
2023-03-17T08:57:46.237Z,100293.63
2023-03-17T09:00:16.732Z,100280.38
2023-03-17T09:02:45.005Z,100288.13
2023-03-17T09:05:13.980Z,100283.84
2023-03-17T09:07:41.591Z,100280.63
2023-03-17T09:10:09.517Z,100283.53
2023-03-17T09:12:35.956Z,100283.28
2023-03-17T09:15:02.378Z,100275.69
2023-03-17T09:17:28.911Z,100279.22
2023-03-17T09:19:55.342Z,100276.03
2023-03-17T09:22:21.986Z,100278.91
2023-03-17T09:24:48.436Z,100281.34
2023-03-17T09:27:14.835Z,100279.13
2023-03-17T09:29:42.074Z,100284.44
2023-03-17T09:32:08.735Z,100287.38
2023-03-17T09:34:35.811Z,100286.56
2023-03-17T09:37:02.240Z,100275.59
2023-03-17T09:39:28.775Z,100264.59
2023-03-17T09:42:19.800Z,100268.72
2023-03-17T09:45:21.631Z,100254.31
2023-03-17T09:48:03.033Z,100246.56
2023-03-17T09:51:02.940Z,100255.44
2023-03-17T09:53:34.614Z,100261.81
2023-03-17T09:56:08.407Z,100260.03
2023-03-17T09:58:36.766Z,100255.31
2023-03-17T10:01:05.399Z,100267.91
2023-03-17T10:03:33.134Z,100251.84
2023-03-17T10:06:15.854Z,100259.25
2023-03-17T10:09:00.605Z,100244.13
2023-03-17T10:11:47.747Z,100249.28
2023-03-17T10:14:29.435Z,100253.13
2023-03-17T10:17:16.429Z,100256.69
2023-03-17T10:19:50.105Z,100250.69
2023-03-17T10:22:25.181Z,100268.44
2023-03-17T10:24:56.105Z,100268.72
2023-03-17T10:27:23.130Z,100270.97
2023-03-17T10:29:49.710Z,100267.38
2023-03-17T10:32:16.240Z,100258.50
2023-03-17T10:34:43.416Z,100261.34
2023-03-17T10:37:17.623Z,100256.44
2023-03-17T10:39:49.076Z,100257.13
2023-03-17T10:42:30.284Z,100252.22
2023-03-17T10:44:58.206Z,100261.91
2023-03-17T10:47:38.193Z,100245.19
2023-03-17T10:50:28.768Z,100257.28
2023-03-17T10:53:04.096Z,100245.44
2023-03-17T10:55:40.829Z,100238.09
2023-03-17T10:58:15.352Z,100228.56
2023-03-17T11:00:56.715Z,100222.63
2023-03-17T11:03:27.337Z,100229.50
2023-03-17T11:06:10.181Z,100215.25
2023-03-17T11:08:49.190Z,100211.72
2023-03-17T11:11:30.768Z,100214.06
2023-03-17T11:14:13.448Z,100211.38
2023-03-17T11:16:54.513Z,100200.97
2023-03-17T11:19:30.969Z,100195.44
2023-03-17T11:22:25.924Z,100179.66
2023-03-17T11:25:11.543Z,100169.50
2023-03-17T11:27:44.439Z,100166.06
2023-03-17T11:30:45.753Z,100189.72
2023-03-17T11:33:42.505Z,100187.03
2023-03-17T11:36:36.203Z,100176.13
2023-03-17T11:39:16.522Z,100169.75
2023-03-17T11:41:56.370Z,100170.47
2023-03-17T11:44:44.452Z,100158.16
2023-03-17T11:47:18.233Z,100154.91
2023-03-17T11:49:50.938Z,100171.56
2023-03-17T11:52:38.719Z,100175.81
2023-03-17T11:55:11.165Z,100166.66
2023-03-17T11:57:58.715Z,100175.06
2023-03-17T12:01:00.332Z,100171.97
2023-03-17T12:03:48.636Z,100166.47
2023-03-17T12:06:25.864Z,100180.09
2023-03-17T12:09:17.400Z,100182.22
2023-03-17T12:11:45.721Z,100179.53
2023-03-17T12:14:26.900Z,100178.81
2023-03-17T12:17:01.711Z,100196.16
2023-03-17T12:19:39.672Z,100200.59
2023-03-17T12:22:17.093Z,100192.66
2023-03-17T12:25:38.981Z,100180.84
2023-03-17T12:28:09.820Z,100178.72
2023-03-17T12:31:04.145Z,100176.00
2023-03-17T12:33:37.813Z,100168.78
2023-03-17T12:36:05.906Z,100157.97
2023-03-17T12:38:39.795Z,100162.13
2023-03-17T12:41:15.320Z,100152.16
2023-03-17T12:44:06.762Z,100160.78
2023-03-17T12:46:52.170Z,100149.91
2023-03-17T12:49:45.183Z,100137.16
2023-03-17T12:52:16.776Z,100137.16
2023-03-17T12:54:49.886Z,100128.00
2023-03-17T12:57:22.419Z,100125.47
2023-03-17T12:59:57.627Z,100120.78
2023-03-17T13:02:29.976Z,100110.50
2023-03-17T13:05:00.575Z,100104.19
2023-03-17T13:07:34.301Z,100108.38
2023-03-17T13:10:00.625Z,100110.06
2023-03-17T13:12:42.700Z,100105.63
2023-03-17T13:15:47.383Z,100111.78
2023-03-17T13:18:16.830Z,100104.53
2023-03-17T13:20:51.374Z,100106.22
2023-03-17T13:23:23.596Z,100107.31
2023-03-17T13:25:53.636Z,100104.00
2023-03-17T13:28:45.330Z,100104.22
2023-03-17T13:31:26.840Z,100110.59
2023-03-17T13:33:56.279Z,100108.88
2023-03-17T13:36:25.537Z,100096.13
2023-03-17T13:39:27.323Z,100094.16
2023-03-17T13:42:23.282Z,100085.31
2023-03-17T13:45:32.683Z,100086.38
2023-03-17T13:48:37.941Z,100093.84
2023-03-17T13:51:24.057Z,100091.56
2023-03-17T13:53:56.561Z,100092.97
2023-03-17T13:56:45.557Z,100101.00
2023-03-17T13:59:14.357Z,100104.31
2023-03-17T14:02:12.256Z,100097.91
2023-03-17T14:04:57.506Z,100104.56
2023-03-17T14:07:28.071Z,100100.94
2023-03-17T14:09:59.130Z,100101.19
2023-03-17T14:12:39.337Z,100104.50
2023-03-17T14:15:17.862Z,100102.56
2023-03-17T14:18:10.958Z,100100.88
2023-03-17T14:20:37.402Z,100097.56
2023-03-17T14:23:04.461Z,100106.13
2023-03-17T14:25:37.117Z,100111.88
2023-03-17T14:28:12.592Z,100102.16
2023-03-17T14:30:39.505Z,100096.84
2023-03-17T14:33:12.031Z,100090.72
2023-03-17T14:35:43.138Z,100077.66
2023-03-17T14:38:19.832Z,100081.81
2023-03-17T14:40:47.248Z,100086.28
2023-03-17T14:43:15.068Z,100077.66
2023-03-17T14:45:51.347Z,100083.47
2023-03-17T14:48:25.924Z,100083.19
2023-03-17T14:50:59.775Z,100085.13
2023-03-17T14:53:26.383Z,100096.22
2023-03-17T14:55:53.638Z,100105.66
2023-03-17T14:58:26.360Z,100107.00
2023-03-17T15:01:03.007Z,100102.22
2023-03-17T15:03:31.571Z,100102.47
2023-03-17T15:06:24.627Z,100093.91
2023-03-17T15:08:52.539Z,100092.50
2023-03-17T15:11:28.476Z,100091.09
2023-03-17T15:14:03.408Z,100088.59
2023-03-17T15:16:33.754Z,100094.13
2023-03-17T15:19:24.156Z,100089.13
2023-03-17T15:21:50.804Z,100078.28
2023-03-17T15:24:34.623Z,100096.28
2023-03-17T15:27:03.529Z,100098.47
2023-03-17T15:29:30.627Z,100099.06
2023-03-17T15:32:02.902Z,100100.72
2023-03-17T15:34:29.386Z,100099.06
2023-03-17T15:36:57.051Z,100094.88
2023-03-17T15:39:24.332Z,100091.00
2023-03-17T15:41:50.889Z,100091.84
2023-03-17T15:44:17.291Z,100081.59
2023-03-17T15:46:43.709Z,100077.72
2023-03-17T15:49:12.956Z,100062.19
2023-03-17T15:51:39.573Z,100069.13
2023-03-17T15:54:06.028Z,100071.06
2023-03-17T15:56:32.519Z,100058.88
2023-03-17T15:58:59.101Z,100057.19
2023-03-17T16:01:27.889Z,100050.78
2023-03-17T16:03:54.664Z,100046.09
2023-03-17T16:06:22.990Z,100041.97
2023-03-17T16:08:50.149Z,100030.59
2023-03-17T16:11:19.910Z,100028.41
2023-03-17T16:13:47.180Z,100042.28
2023-03-17T16:16:40.013Z,100046.16
2023-03-17T16:19:10.261Z,100038.13
2023-03-17T16:21:37.256Z,100042.59
2023-03-17T16:24:03.808Z,100041.47
2023-03-17T16:26:30.378Z,100055.31
2023-03-17T16:28:57.504Z,100043.97
2023-03-17T16:31:31.393Z,100056.16
2023-03-17T16:33:58.009Z,100061.69
2023-03-17T16:36:25.682Z,100066.09
2023-03-17T16:38:52.582Z,100066.63
2023-03-17T16:41:24.921Z,100067.13
2023-03-17T16:43:56.679Z,100065.44
2023-03-17T16:46:23.519Z,100072.59
2023-03-17T16:48:50.385Z,100060.91
2023-03-17T16:51:17.836Z,100060.84
2023-03-17T16:53:46.827Z,100069.97
2023-03-17T16:56:16.661Z,100072.16
2023-03-17T16:58:43.477Z,100087.06
2023-03-17T17:01:14.857Z,100097.25
2023-03-17T17:03:41.493Z,100091.34
2023-03-17T17:06:09.562Z,100094.13
2023-03-17T17:08:36.205Z,100107.06
2023-03-17T17:11:02.856Z,100101.81
2023-03-17T17:13:29.277Z,100097.59
2023-03-17T17:15:56.232Z,100086.19
2023-03-17T17:18:24.639Z,100091.41
2023-03-17T17:20:52.829Z,100086.97
2023-03-17T17:23:26.912Z,100088.59
2023-03-17T17:25:54.492Z,100085.19
2023-03-17T17:28:23.240Z,100085.19
2023-03-17T17:30:50.950Z,100090.16
2023-03-17T17:33:19.138Z,100077.06
2023-03-17T17:35:46.178Z,100095.91
2023-03-17T17:38:19.816Z,100089.44
2023-03-17T17:40:46.574Z,100103.78
2023-03-17T17:43:13.072Z,100108.16
2023-03-17T17:45:39.859Z,100115.03
2023-03-17T17:48:06.330Z,100105.34
2023-03-17T17:50:33.357Z,100098.09
2023-03-17T17:53:05.236Z,100090.81
2023-03-17T17:55:33.757Z,100101.56
2023-03-17T17:58:00.853Z,100109.28
2023-03-17T18:00:27.701Z,100108.13
2023-03-17T18:02:54.208Z,100112.25
2023-03-17T18:05:20.973Z,100122.72
2023-03-17T18:07:47.505Z,100139.84
2023-03-17T18:10:23.969Z,100158.88
2023-03-17T18:12:50.681Z,100157.47
2023-03-17T18:15:17.752Z,100171.81
2023-03-17T18:17:44.245Z,100166.78
2023-03-17T18:20:13.507Z,100161.19
2023-03-17T18:22:40.813Z,100155.31
2023-03-17T18:25:09.853Z,100170.47
2023-03-17T18:27:37.659Z,100179.88
2023-03-17T18:30:07.229Z,100178.19
2023-03-17T18:32:33.777Z,100185.66
2023-03-17T18:35:03.491Z,100183.97
2023-03-17T18:37:31.049Z,100190.84
2023-03-17T18:40:12.581Z,100178.84
2023-03-17T18:42:41.086Z,100180.19
2023-03-17T18:45:09.658Z,100182.88
2023-03-17T18:47:38.801Z,100180.38
2023-03-17T18:50:07.066Z,100168.97
2023-03-17T18:52:35.744Z,100167.78
2023-03-17T18:55:02.766Z,100185.38
2023-03-17T18:57:29.338Z,100193.56
2023-03-17T18:59:55.912Z,100178.00
2023-03-17T19:02:22.759Z,100171.78
2023-03-17T19:04:49.404Z,100181.06
2023-03-17T19:07:16.423Z,100180.97
2023-03-17T19:09:42.965Z,100179.75
2023-03-17T19:12:09.878Z,100184.09
2023-03-17T19:14:38.747Z,100182.91
2023-03-17T19:17:06.210Z,100185.06
2023-03-17T19:19:33.869Z,100172.84
2023-03-17T19:22:01.953Z,100168.28
2023-03-17T19:24:28.350Z,100179.84
2023-03-17T19:26:54.827Z,100177.31
2023-03-17T19:29:21.291Z,100175.88
2023-03-17T19:31:48.683Z,100182.75
2023-03-17T19:34:15.473Z,100194.66
2023-03-17T19:36:45.753Z,100186.59
2023-03-17T19:39:13.160Z,100179.03
2023-03-17T19:41:39.975Z,100193.34
2023-03-17T19:44:06.816Z,100184.94
2023-03-17T19:46:34.280Z,100188.44
2023-03-17T19:49:01.580Z,100185.91
2023-03-17T19:51:28.860Z,100185.34
2023-03-17T19:53:55.845Z,100187.97
2023-03-17T19:56:23.093Z,100196.75
2023-03-17T19:58:50.012Z,100189.41
2023-03-17T20:01:17.122Z,100193.16
2023-03-17T20:03:43.769Z,100199.16
2023-03-17T20:06:11.917Z,100198.81
2023-03-17T20:08:39.392Z,100215.25
2023-03-17T20:11:06.282Z,100228.69
2023-03-17T20:13:34.523Z,100232.41
2023-03-17T20:16:02.003Z,100222.94
2023-03-17T20:18:29.310Z,100215.38
2023-03-17T20:20:57.471Z,100221.16
2023-03-17T20:23:25.094Z,100216.34
2023-03-17T20:25:52.488Z,100225.91
2023-03-17T20:28:21.323Z,100230.25
2023-03-17T20:30:49.279Z,100230.47
2023-03-17T20:33:16.832Z,100237.31
2023-03-17T20:35:46.780Z,100236.72
2023-03-17T20:38:14.509Z,100240.53
2023-03-17T20:40:41.758Z,100247.16
2023-03-17T20:43:08.494Z,100234.66
2023-03-17T20:45:35.054Z,100234.66
2023-03-17T20:48:02.006Z,100238.75
2023-03-17T20:50:30.939Z,100228.78
2023-03-17T20:52:57.779Z,100228.78
2023-03-17T20:55:25.494Z,100235.41
2023-03-17T20:57:52.625Z,100238.38
2023-03-17T21:00:21.161Z,100244.13
2023-03-17T21:02:50.140Z,100232.50
2023-03-17T21:05:23.153Z,100240.38
2023-03-17T21:07:50.139Z,100237.25
2023-03-17T21:10:18.010Z,100244.94
2023-03-17T21:12:45.305Z,100255.13
2023-03-17T21:15:12.927Z,100258.94
2023-03-17T21:17:40.088Z,100263.84
2023-03-17T21:20:09.540Z,100261.06
2023-03-17T21:22:36.773Z,100271.28
2023-03-17T21:25:04.695Z,100271.28
2023-03-17T21:27:31.126Z,100275.13
2023-03-17T21:29:57.598Z,100264.78
2023-03-17T21:32:25.104Z,100284.56
2023-03-17T21:34:51.638Z,100285.88
2023-03-17T21:37:18.734Z,100280.22
2023-03-17T21:39:45.791Z,100280.31
2023-03-17T21:42:12.611Z,100278.41
2023-03-17T21:44:39.460Z,100281.75
2023-03-17T21:47:05.866Z,100285.56
2023-03-17T21:49:32.264Z,100281.16
2023-03-17T21:51:58.672Z,100280.53
2023-03-17T21:54:25.593Z,100285.66
2023-03-17T21:56:52.670Z,100278.94
2023-03-17T21:59:20.928Z,100271.75
2023-03-17T22:01:47.898Z,100279.03
2023-03-17T22:04:14.403Z,100282.63
2023-03-17T22:06:41.197Z,100282.84
2023-03-17T22:09:08.609Z,100287.78
2023-03-17T22:11:35.071Z,100273.75
2023-03-17T22:14:01.896Z,100265.09
2023-03-17T22:16:28.489Z,100262.22
2023-03-17T22:18:55.036Z,100265.47
2023-03-17T22:21:21.625Z,100267.59
2023-03-17T22:23:48.167Z,100276.31
2023-03-17T22:26:17.739Z,100272.94
2023-03-17T22:28:45.384Z,100269.22
2023-03-17T22:31:19.997Z,100274.34
2023-03-17T22:33:48.804Z,100270.53
2023-03-17T22:36:15.998Z,100273.88
2023-03-17T22:38:42.423Z,100266.22
2023-03-17T22:41:13.604Z,100272.34
2023-03-17T22:43:41.603Z,100269.59
2023-03-17T22:46:09.244Z,100263.22
2023-03-17T22:48:36.129Z,100260.72
2023-03-17T22:51:03.774Z,100257.72
2023-03-17T22:53:31.433Z,100233.19
2023-03-17T22:55:58.275Z,100210.78
2023-03-17T22:58:26.048Z,100216.03
2023-03-17T23:00:53.679Z,100233.41
2023-03-17T23:03:20.580Z,100265.13
2023-03-17T23:05:49.639Z,100272.13
2023-03-17T23:08:20.145Z,100280.75
2023-03-17T23:10:50.552Z,100297.03
2023-03-17T23:13:18.848Z,100314.41
2023-03-17T23:15:45.838Z,100313.94
2023-03-17T23:18:12.247Z,100315.63
2023-03-17T23:20:40.108Z,100322.00
2023-03-17T23:23:08.297Z,100313.72
2023-03-17T23:25:36.485Z,100315.41
2023-03-17T23:28:03.219Z,100317.31
2023-03-17T23:30:30.870Z,100314.31
2023-03-17T23:32:58.128Z,100328.94
2023-03-17T23:35:25.237Z,100320.69
2023-03-17T23:37:51.988Z,100323.91
2023-03-17T23:40:18.540Z,100323.06
2023-03-17T23:42:46.022Z,100313.09
2023-03-17T23:45:12.511Z,100320.31
2023-03-17T23:47:38.947Z,100312.66
2023-03-17T23:50:05.959Z,100323.44
2023-03-17T23:52:32.677Z,100325.34
2023-03-17T23:54:59.081Z,100332.31
2023-03-17T23:57:26.020Z,100321.53
2023-03-17T23:59:52.452Z,100322.97
